createdAt,value
2024-05-09T00:01:28.685Z,100.00
2024-05-09T00:05:30.345Z,100.00
2024-05-09T00:09:32.051Z,100.00
2024-05-09T00:13:33.586Z,100.00
2024-05-09T00:17:35.202Z,100.00
2024-05-09T00:21:41.361Z,100.00
2024-05-09T00:25:43.692Z,100.00
2024-05-09T00:29:45.461Z,100.00
2024-05-09T00:33:47.131Z,100.00
2024-05-09T00:37:48.720Z,100.00
2024-05-09T00:41:50.251Z,100.00
2024-05-09T00:45:51.772Z,100.00
2024-05-09T00:49:53.891Z,100.00
2024-05-09T00:53:55.507Z,100.00
2024-05-09T00:57:57.076Z,100.00
2024-05-09T01:01:59.880Z,100.00
2024-05-09T01:06:01.468Z,100.00
2024-05-09T01:10:04.217Z,100.00
2024-05-09T01:14:07.284Z,100.00
2024-05-09T01:18:11.689Z,100.00
2024-05-09T01:22:14.205Z,100.00
2024-05-09T01:26:15.884Z,100.00
2024-05-09T01:30:21.352Z,100.00
2024-05-09T01:34:29.271Z,100.00
2024-05-09T01:38:30.945Z,100.00
2024-05-09T01:42:32.564Z,100.00
2024-05-09T01:46:34.038Z,100.00
2024-05-09T01:50:39.868Z,100.00
2024-05-09T01:54:43.722Z,100.00
2024-05-09T01:58:45.272Z,100.00
2024-05-09T02:02:46.902Z,100.00
2024-05-09T02:06:48.442Z,100.00
2024-05-09T02:10:50.665Z,100.00
2024-05-09T02:14:52.470Z,100.00
2024-05-09T02:18:54.002Z,100.00
2024-05-09T02:22:55.626Z,100.00
2024-05-09T02:26:57.106Z,100.00
2024-05-09T02:30:58.573Z,100.00
2024-05-09T02:35:00.149Z,100.00
2024-05-09T02:39:01.888Z,100.00
2024-05-09T02:43:03.583Z,100.00
2024-05-09T02:47:05.144Z,100.00
2024-05-09T02:51:06.861Z,100.00
2024-05-09T02:55:08.471Z,100.00
2024-05-09T02:59:10.047Z,100.00
2024-05-09T03:03:14.308Z,100.00
2024-05-09T03:07:19.739Z,100.00
2024-05-09T03:11:25.885Z,100.00
2024-05-09T03:15:27.486Z,100.00
2024-05-09T03:19:29.162Z,100.00
2024-05-09T03:23:30.725Z,100.00
2024-05-09T03:27:32.389Z,100.00
2024-05-09T03:31:33.931Z,100.00
2024-05-09T03:35:35.440Z,100.00
2024-05-09T03:39:36.929Z,100.00
2024-05-09T03:43:38.521Z,100.00
2024-05-09T03:47:40.189Z,100.00
2024-05-09T03:51:41.741Z,100.00
2024-05-09T03:55:43.245Z,100.00
2024-05-09T03:59:44.726Z,100.00
2024-05-09T04:03:46.386Z,100.00
2024-05-09T04:07:48.047Z,100.00
2024-05-09T04:11:49.736Z,100.00
2024-05-09T04:15:51.328Z,100.00
2024-05-09T04:19:52.825Z,100.00
2024-05-09T04:23:54.368Z,100.00
2024-05-09T04:27:55.937Z,100.00
2024-05-09T04:31:57.615Z,100.00
2024-05-09T04:35:59.170Z,100.00
2024-05-09T04:40:00.693Z,100.00
2024-05-09T04:44:02.206Z,100.00
2024-05-09T04:48:04.258Z,100.00
2024-05-09T04:52:06.041Z,100.00
2024-05-09T04:56:07.725Z,100.00
2024-05-09T05:00:14.742Z,100.00
2024-05-09T05:04:23.050Z,100.00
2024-05-09T05:08:24.605Z,100.00
2024-05-09T05:12:26.232Z,83.22
2024-05-09T05:16:27.809Z,74.60
2024-05-09T05:20:33.560Z,61.83
2024-05-09T05:24:35.885Z,55.86
2024-05-09T05:28:37.397Z,50.74
2024-05-09T05:32:39.066Z,51.38
2024-05-09T05:36:40.651Z,49.71
2024-05-09T05:40:42.333Z,57.46
2024-05-09T05:44:43.808Z,50.38
2024-05-09T05:48:45.498Z,51.63
2024-05-09T05:52:47.085Z,51.95
2024-05-09T05:56:48.585Z,51.67
2024-05-09T06:00:50.790Z,49.26
2024-05-09T06:04:52.451Z,53.18
2024-05-09T06:08:54.600Z,54.05
2024-05-09T06:12:56.252Z,52.31
2024-05-09T06:16:58.419Z,55.51
2024-05-09T06:20:59.964Z,50.32
2024-05-09T06:25:01.486Z,51.39
2024-05-09T06:29:03.206Z,49.90
2024-05-09T06:33:06.079Z,55.19
2024-05-09T06:37:07.860Z,56.48
2024-05-09T06:41:09.412Z,55.50
2024-05-09T06:45:10.921Z,55.08
2024-05-09T06:49:12.571Z,53.51
2024-05-09T06:53:15.613Z,54.03
2024-05-09T06:57:17.144Z,51.19
2024-05-09T07:01:18.701Z,50.11
2024-05-09T07:05:20.400Z,48.47
2024-05-09T07:09:21.962Z,49.41
2024-05-09T07:13:23.470Z,49.84
2024-05-09T07:17:25.096Z,53.27
2024-05-09T07:21:26.704Z,50.05
2024-05-09T07:25:28.196Z,54.25
2024-05-09T07:29:29.846Z,50.64
2024-05-09T07:33:31.549Z,52.96
2024-05-09T07:37:33.134Z,54.71
2024-05-09T07:41:35.105Z,57.57
2024-05-09T07:45:48.384Z,49.19
2024-05-09T07:54:00.962Z,48.65
2024-05-09T07:58:03.294Z,49.01
2024-05-09T08:02:05.911Z,48.71
2024-05-09T08:06:07.602Z,48.04
2024-05-09T08:10:12.741Z,47.71
2024-05-09T08:14:14.572Z,47.73
2024-05-09T08:18:16.177Z,45.41
2024-05-09T08:22:17.825Z,48.44
2024-05-09T08:26:19.311Z,47.55
2024-05-09T08:30:25.445Z,45.10
2024-05-09T08:34:34.135Z,47.69
2024-05-09T08:38:35.703Z,47.67
2024-05-09T08:42:44.800Z,48.22
2024-05-09T08:46:47.672Z,47.72
2024-05-09T08:50:51.545Z,45.84
2024-05-09T08:54:53.163Z,43.66
2024-05-09T08:58:59.071Z,45.03
2024-05-09T09:03:02.630Z,43.40
2024-05-09T09:07:05.927Z,42.94
2024-05-09T09:11:07.473Z,41.77
2024-05-09T09:15:09.205Z,44.46
2024-05-09T09:19:10.790Z,40.86
2024-05-09T09:23:12.564Z,42.13
2024-05-09T09:27:14.415Z,41.20
2024-05-09T09:31:19.320Z,43.25
2024-05-09T09:35:20.900Z,43.49
2024-05-09T09:39:27.438Z,43.50
2024-05-09T09:43:29.975Z,40.54
2024-05-09T09:47:32.997Z,41.10
2024-05-09T09:51:35.970Z,40.89
2024-05-09T09:55:39.504Z,42.52
2024-05-09T09:59:44.010Z,43.16
2024-05-09T10:03:45.695Z,41.04
2024-05-09T10:07:47.561Z,40.42
2024-05-09T10:11:52.448Z,42.49
2024-05-09T10:16:07.815Z,40.08
2024-05-09T10:20:17.968Z,37.85
2024-05-09T10:24:23.072Z,40.29
2024-05-09T10:28:32.359Z,40.81
2024-05-09T10:32:40.579Z,42.63
2024-05-09T10:36:42.252Z,40.62
2024-05-09T10:40:45.640Z,39.53
2024-05-09T10:44:47.113Z,39.35
2024-05-09T10:48:49.068Z,39.34
2024-05-09T10:52:53.041Z,38.39
2024-05-09T10:56:57.664Z,39.25
2024-05-09T11:01:00.650Z,39.75
2024-05-09T11:05:03.384Z,41.90
2024-05-09T11:09:05.157Z,41.64
2024-05-09T11:13:06.736Z,41.06
2024-05-09T11:17:08.456Z,40.38
2024-05-09T11:21:13.903Z,40.18
2024-05-09T11:25:18.102Z,38.53
2024-05-09T11:29:20.015Z,38.74
2024-05-09T11:33:21.830Z,37.56
2024-05-09T11:37:23.351Z,36.34
2024-05-09T11:41:24.831Z,38.83
2024-05-09T11:45:26.314Z,39.22
2024-05-09T11:49:27.863Z,38.04
2024-05-09T11:53:29.371Z,40.62
2024-05-09T11:57:30.990Z,41.16
2024-05-09T12:01:32.716Z,41.28
2024-05-09T12:05:34.718Z,41.75
2024-05-09T12:09:36.468Z,42.60
2024-05-09T12:13:37.959Z,42.45
2024-05-09T12:17:39.495Z,42.28
2024-05-09T12:21:41.084Z,42.84
2024-05-09T12:25:42.711Z,43.27
2024-05-09T12:29:44.300Z,42.96
2024-05-09T12:33:46.234Z,39.83
2024-05-09T12:37:47.775Z,39.72
2024-05-09T12:41:49.266Z,39.64
2024-05-09T12:45:50.805Z,40.66
2024-05-09T12:49:52.416Z,41.39
2024-05-09T12:53:54.059Z,42.04
2024-05-09T12:57:55.759Z,40.85
2024-05-09T13:01:59.550Z,40.21
2024-05-09T13:06:02.066Z,40.23
2024-05-09T13:10:04.640Z,41.78
2024-05-09T13:14:07.129Z,43.36
2024-05-09T13:18:09.244Z,40.95
2024-05-09T13:22:10.868Z,40.37
2024-05-09T13:26:12.527Z,40.17
2024-05-09T13:30:21.770Z,42.57
2024-05-09T13:34:30.574Z,41.49
2024-05-09T13:38:32.201Z,43.45
2024-05-09T13:42:33.812Z,42.87
2024-05-09T13:46:35.660Z,42.26
2024-05-09T13:50:37.391Z,39.89
2024-05-09T13:54:39.029Z,39.36
2024-05-09T13:58:40.839Z,39.19
2024-05-09T14:02:42.440Z,39.94
2024-05-09T14:06:44.210Z,39.43
2024-05-09T14:10:46.097Z,40.14
2024-05-09T14:14:47.755Z,41.32
2024-05-09T14:18:49.373Z,40.06
2024-05-09T14:22:50.886Z,41.39
2024-05-09T14:26:52.460Z,40.30
2024-05-09T14:30:53.973Z,40.50
2024-05-09T14:34:55.548Z,39.25
2024-05-09T14:38:57.063Z,39.78
2024-05-09T14:43:01.085Z,39.39
2024-05-09T14:47:04.242Z,38.25
2024-05-09T14:51:05.894Z,39.44
2024-05-09T14:55:10.109Z,40.96
2024-05-09T14:59:13.280Z,40.96
2024-05-09T15:03:14.809Z,40.25
2024-05-09T15:07:16.475Z,42.11
2024-05-09T15:11:18.039Z,42.29
2024-05-09T15:15:19.587Z,43.48
2024-05-09T15:19:21.419Z,43.53
2024-05-09T15:23:22.962Z,41.05
2024-05-09T15:27:24.459Z,41.48
2024-05-09T15:31:26.104Z,39.90
2024-05-09T15:35:27.745Z,39.60
2024-05-09T15:39:29.703Z,39.28
2024-05-09T15:43:31.474Z,38.33
2024-05-09T15:47:34.632Z,38.64
2024-05-09T15:51:36.197Z,40.21
2024-05-09T15:55:38.321Z,40.37
2024-05-09T15:59:40.195Z,40.46
2024-05-09T16:03:41.829Z,38.95
2024-05-09T16:07:43.467Z,40.32
2024-05-09T16:11:44.960Z,39.25
2024-05-09T16:15:46.727Z,38.79
2024-05-09T16:19:48.367Z,39.64
2024-05-09T16:23:49.994Z,40.41
2024-05-09T16:27:51.838Z,40.77
2024-05-09T16:31:53.442Z,40.25
2024-05-09T16:35:54.991Z,40.92
2024-05-09T16:39:56.556Z,40.35
2024-05-09T16:43:58.025Z,40.31
2024-05-09T16:48:00.330Z,45.49
2024-05-09T16:52:02.144Z,44.54
2024-05-09T16:56:04.016Z,40.50
2024-05-09T17:00:11.749Z,40.14
2024-05-09T17:04:21.739Z,40.39
2024-05-09T17:08:23.573Z,41.21
2024-05-09T17:12:26.137Z,41.93
2024-05-09T17:16:28.192Z,41.32
2024-05-09T17:20:34.275Z,50.50
2024-05-09T17:24:38.025Z,50.78
2024-05-09T17:28:39.599Z,51.12
2024-05-09T17:32:41.151Z,53.03
2024-05-09T17:36:42.835Z,50.32
2024-05-09T17:40:44.955Z,52.10
2024-05-09T17:44:46.440Z,53.41
2024-05-09T17:48:48.032Z,50.40
2024-05-09T17:52:49.632Z,56.54
2024-05-09T17:56:51.162Z,58.09
2024-05-09T18:00:52.799Z,61.32
2024-05-09T18:04:54.585Z,63.07
2024-05-09T18:08:56.204Z,65.96
2024-05-09T18:12:57.743Z,69.41
2024-05-09T18:16:59.321Z,71.57
2024-05-09T18:21:00.811Z,73.03
2024-05-09T18:25:02.494Z,75.00
2024-05-09T18:29:04.508Z,76.17
2024-05-09T18:33:08.162Z,76.44
2024-05-09T18:37:10.390Z,78.22
2024-05-09T18:41:11.965Z,77.99
2024-05-09T18:45:13.544Z,78.88
2024-05-09T18:49:15.255Z,78.19
2024-05-09T18:53:16.986Z,79.27
2024-05-09T18:57:18.535Z,80.34
2024-05-09T19:01:20.190Z,79.59
2024-05-09T19:05:21.977Z,80.15
2024-05-09T19:09:23.684Z,80.68
2024-05-09T19:13:25.368Z,80.53
2024-05-09T19:17:28.161Z,80.03
2024-05-09T19:21:30.340Z,80.45
2024-05-09T19:25:32.901Z,81.11
2024-05-09T19:29:34.410Z,81.82
2024-05-09T19:33:35.997Z,81.82
2024-05-09T19:37:37.674Z,82.09
2024-05-09T19:41:39.134Z,82.81
2024-05-09T19:45:40.675Z,82.56
2024-05-09T19:49:42.238Z,82.17
2024-05-09T19:53:43.752Z,82.76
2024-05-09T19:57:45.265Z,83.44
2024-05-09T20:01:46.981Z,83.84
2024-05-09T20:05:48.773Z,83.41
2024-05-09T20:09:50.528Z,83.22
2024-05-09T20:13:52.133Z,84.45
2024-05-09T20:17:54.366Z,84.19
2024-05-09T20:21:56.056Z,85.43
2024-05-09T20:25:57.653Z,85.41
2024-05-09T20:29:59.312Z,85.45
2024-05-09T20:34:00.938Z,87.46
2024-05-09T20:38:03.665Z,88.10
2024-05-09T20:42:07.915Z,88.23
2024-05-09T20:46:09.397Z,88.15
2024-05-09T20:50:20.262Z,89.30
2024-05-09T20:54:29.888Z,90.98
2024-05-09T20:58:31.430Z,90.66
2024-05-09T21:02:33.149Z,90.78
2024-05-09T21:06:34.814Z,92.95
2024-05-09T21:10:37.015Z,95.58
2024-05-09T21:14:38.983Z,96.22
2024-05-09T21:18:40.544Z,95.87
2024-05-09T21:22:43.749Z,95.47
2024-05-09T21:26:45.135Z,95.29
2024-05-09T21:30:46.711Z,95.93
2024-05-09T21:34:48.431Z,97.17
2024-05-09T21:38:49.998Z,97.08
2024-05-09T21:42:51.592Z,98.40
2024-05-09T21:46:55.658Z,97.96
2024-05-09T21:50:57.166Z,98.74
2024-05-09T21:54:58.723Z,99.52
2024-05-09T21:59:00.228Z,99.39
2024-05-09T22:03:02.307Z,99.47
2024-05-09T22:07:04.301Z,99.58
2024-05-09T22:11:06.272Z,99.44
2024-05-09T22:15:07.969Z,100.00
2024-05-09T22:19:09.607Z,100.00
2024-05-09T22:23:11.403Z,99.63
2024-05-09T22:27:12.876Z,97.89
2024-05-09T22:31:14.397Z,95.60
2024-05-09T22:35:15.941Z,98.79
2024-05-09T22:39:17.503Z,99.17
2024-05-09T22:43:20.792Z,100.00
2024-05-09T22:47:23.943Z,100.00
2024-05-09T22:51:25.433Z,100.00
2024-05-09T22:55:26.917Z,100.00
2024-05-09T22:59:29.546Z,100.00
2024-05-09T23:03:32.769Z,100.00
2024-05-09T23:07:34.389Z,100.00
2024-05-09T23:11:35.911Z,100.00
2024-05-09T23:15:37.549Z,100.00
2024-05-09T23:19:39.325Z,100.00
2024-05-09T23:23:42.147Z,100.00
2024-05-09T23:27:43.634Z,100.00
2024-05-09T23:31:45.132Z,100.00
2024-05-09T23:35:46.592Z,100.00
2024-05-09T23:39:48.138Z,100.00
2024-05-09T23:43:49.832Z,100.00
2024-05-09T23:47:51.505Z,100.00
2024-05-09T23:51:53.098Z,100.00
2024-05-09T23:55:54.645Z,100.00
2024-05-09T23:59:56.128Z,100.00
